Time;durP1;ratioP1;P1;durP2;ratioP2;P2;SDS_P1;SDS_P2;PMS_P1;PMS_P2;Temp;Humidity;BMP_temperature;BMP_pressure;BME280_temperature;BME280_humidity;BME280_pressure;Samples;Min_cycle;Max_cycle;Signal;HPM_P1;HPM_P2
2022/09/07 00:00:19;;;;;;;9.68;6.78;;;19.80;76.50;;;;;;5027252;28;20045;-72
2022/09/07 00:02:44;;;;;;;11.57;6.78;;;19.70;76.00;;;;;;5013772;28;20053;-72
2022/09/07 00:05:10;;;;;;;10.05;7.32;;;19.70;76.70;;;;;;5029757;28;20838;-71
2022/09/07 00:07:36;;;;;;;8.70;7.25;;;19.70;76.70;;;;;;5013424;28;20059;-71
2022/09/07 00:10:02;;;;;;;8.75;6.93;;;19.70;77.00;;;;;;5028958;28;20108;-71
2022/09/07 00:12:27;;;;;;;9.52;6.88;;;19.60;76.80;;;;;;5023177;28;20534;-71
2022/09/07 00:14:53;;;;;;;9.77;6.88;;;19.60;76.40;;;;;;5025192;28;20374;-71
2022/09/07 00:17:19;;;;;;;10.27;6.60;;;19.60;77.30;;;;;;5025338;28;20045;-71
2022/09/07 00:19:45;;;;;;;8.93;7.10;;;19.50;77.40;;;;;;5010416;28;20056;-71
2022/09/07 00:22:10;;;;;;;8.40;7.30;;;19.50;77.90;;;;;;5008513;28;20050;-71
2022/09/07 00:24:36;;;;;;;8.90;7.05;;;19.50;77.40;;;;;;5024730;28;20068;-71
2022/09/07 00:27:02;;;;;;;9.80;6.70;;;19.50;77.50;;;;;;5026688;28;20049;-71
2022/09/07 00:29:28;;;;;;;7.55;6.32;;;19.50;77.70;;;;;;5025941;28;20553;-71
2022/09/07 00:31:53;;;;;;;12.00;7.25;;;19.50;78.10;;;;;;5028161;28;20362;-71
2022/09/07 00:34:19;;;;;;;11.27;7.30;;;19.40;77.70;;;;;;5006854;28;20046;-71
2022/09/07 00:36:45;;;;;;;8.27;6.85;;;19.40;78.40;;;;;;5019520;28;20053;-69
2022/09/07 00:39:11;;;;;;;11.68;7.00;;;19.40;78.00;;;;;;5006521;28;20045;-71
2022/09/07 00:41:36;;;;;;;11.50;6.95;;;19.40;78.30;;;;;;5024662;28;20782;-71
2022/09/07 00:44:40;;;;;;;10.85;6.80;;;19.40;78.70;;;;;;5005976;28;20046;-71
2022/09/07 00:47:06;;;;;;;8.48;7.55;;;19.30;78.50;;;;;;5020869;28;20053;-71
2022/09/07 00:49:32;;;;;;;11.35;7.50;;;19.40;79.00;;;;;;5012645;28;20053;-71
2022/09/07 00:51:59;;;;;;;10.60;7.38;;;19.30;79.10;;;;;;5002697;28;20129;-69
2022/09/07 00:54:32;;;;;;;7.38;6.57;;;19.30;79.30;;;;;;5012627;28;20437;-71
2022/09/07 00:56:57;;;;;;;9.13;7.40;;;19.30;79.40;;;;;;5012405;28;20041;-71
2022/09/07 00:59:29;;;;;;;10.57;7.07;;;19.30;78.90;;;;;;5007902;28;20492;-71
2022/09/07 01:01:55;;;;;;;9.85;7.47;;;19.30;79.50;;;;;;5006311;28;20153;-71
2022/09/07 01:04:21;;;;;;;7.93;7.05;;;19.20;80.20;;;;;;5024485;28;20160;-70
2022/09/07 01:06:46;;;;;;;9.85;7.65;;;19.20;80.00;;;;;;5012431;28;20076;-71
2022/09/07 01:09:14;;;;;;;8.10;7.03;;;19.20;80.40;;;;;;5002660;28;20111;-72
2022/09/07 01:11:40;;;;;;;7.90;6.63;;;19.20;79.30;;;;;;5012411;28;20466;-71
2022/09/07 01:14:08;;;;;;;8.77;6.93;;;19.20;80.40;;;;;;5028963;28;20072;-71
2022/09/07 01:16:47;;;;;;;11.63;6.93;;;19.20;79.60;;;;;;5015984;28;20046;-71
2022/09/07 01:19:28;;;;;;;9.32;7.55;;;19.20;80.60;;;;;;5028973;28;20064;-71
2022/09/07 01:22:09;;;;;;;12.18;7.03;;;19.20;80.00;;;;;;5003479;28;20042;-71
2022/09/07 01:24:58;;;;;;;8.27;6.72;;;19.10;80.50;;;;;;5009052;28;20045;-71
2022/09/07 01:27:31;;;;;;;9.32;6.43;;;19.10;80.40;;;;;;5029186;28;20465;-71
2022/09/07 01:30:05;;;;;;;9.07;7.10;;;19.10;79.90;;;;;;5008415;28;20053;-71
2022/09/07 01:32:36;;;;;;;9.88;6.53;;;19.10;80.50;;;;;;4993746;28;20619;-72
2022/09/07 01:35:03;;;;;;;8.60;6.32;;;19.10;79.70;;;;;;5018218;28;20061;-71
2022/09/07 01:38:00;;;;;;;10.48;7.15;;;19.10;79.80;;;;;;5010383;28;20052;-71
2022/09/07 01:40:57;;;;;;;10.57;7.63;;;19.10;79.60;;;;;;4996548;28;20923;-71
2022/09/07 01:43:34;;;;;;;7.80;6.68;;;19.00;80.60;;;;;;5020546;28;20038;-71
2022/09/07 01:46:01;;;;;;;12.35;7.80;;;19.00;80.40;;;;;;5028974;28;20068;-71
2022/09/07 01:48:27;;;;;;;8.18;6.32;;;19.00;81.10;;;;;;5004809;28;20077;-72
2022/09/07 01:50:57;;;;;;;9.50;6.82;;;19.00;80.50;;;;;;5025667;28;20045;-72
2022/09/07 01:53:27;;;;;;;9.00;7.05;;;19.00;81.10;;;;;;5003555;28;20104;-71
2022/09/07 01:56:02;;;;;;;11.80;7.20;;;19.00;80.60;;;;;;5008700;28;20628;-71
2022/09/07 01:58:46;;;;;;;9.80;7.00;;;18.90;81.10;;;;;;5044198;28;20774;-71
2022/09/07 02:01:33;;;;;;;10.38;6.78;;;18.90;80.90;;;;;;5004239;28;20121;-71
2022/09/07 02:04:23;;;;;;;10.10;7.00;;;18.90;80.60;;;;;;5008624;28;20049;-71
2022/09/07 02:07:05;;;;;;;10.35;7.07;;;18.90;80.50;;;;;;5000169;28;20045;-71
2022/09/07 02:09:34;;;;;;;11.43;7.35;;;18.90;81.00;;;;;;5005621;28;20889;-71
2022/09/07 02:12:02;;;;;;;7.80;6.60;;;18.90;80.90;;;;;;5011685;28;20050;-71
2022/09/07 02:14:29;;;;;;;10.75;7.93;;;18.90;81.10;;;;;;5005887;28;20054;-71
2022/09/07 02:17:08;;;;;;;8.38;6.95;;;18.80;81.90;;;;;;5006691;28;20119;-71
2022/09/07 02:19:54;;;;;;;8.93;7.82;;;18.70;81.60;;;;;;5019944;28;20053;-71
2022/09/07 02:22:22;;;;;;;11.82;7.43;;;18.80;81.20;;;;;;5019135;28;20056;-71
2022/09/07 02:24:50;;;;;;;9.05;7.25;;;18.80;81.60;;;;;;5011512;28;20436;-71
2022/09/07 02:27:26;;;;;;;10.85;7.18;;;18.70;81.70;;;;;;5003672;28;20049;-71
2022/09/07 02:29:52;;;;;;;12.65;7.68;;;18.70;81.70;;;;;;4983812;28;20057;-71
2022/09/07 02:32:18;;;;;;;11.90;7.50;;;18.70;81.70;;;;;;5009114;28;20093;-71
2022/09/07 02:34:45;;;;;;;12.75;8.23;;;18.70;82.20;;;;;;5027847;28;20084;-71
2022/09/07 02:37:10;;;;;;;10.25;7.90;;;18.70;83.00;;;;;;5004467;28;20433;-71
2022/09/07 02:39:37;;;;;;;10.20;8.43;;;18.60;82.50;;;;;;5037493;28;20046;-71
2022/09/07 02:42:03;;;;;;;10.93;8.15;;;18.60;82.10;;;;;;5011301;28;20045;-74
2022/09/07 02:44:33;;;;;;;10.07;8.50;;;18.60;82.70;;;;;;5027185;28;20049;-71
2022/09/07 02:47:20;;;;;;;8.73;7.82;;;18.50;83.30;;;;;;5004762;28;20058;-71
2022/09/07 02:49:56;;;;;;;8.13;7.15;;;18.50;82.70;;;;;;5022824;28;20056;-71
2022/09/07 02:52:36;;;;;;;10.38;8.48;;;18.50;82.60;;;;;;5026238;28;20122;-71
2022/09/07 02:55:17;;;;;;;9.77;7.82;;;18.60;82.20;;;;;;5009564;28;20059;-71
2022/09/07 02:58:21;;;;;;;12.52;9.20;;;18.60;82.90;;;;;;5028223;28;20046;-71
2022/09/07 03:01:04;;;;;;;12.15;8.48;;;18.50;83.40;;;;;;4987246;28;20053;-71
2022/09/07 03:03:46;;;;;;;11.65;9.57;;;18.50;83.00;;;;;;5029124;28;20045;-71
2022/09/07 03:06:33;;;;;;;10.77;9.20;;;18.50;83.30;;;;;;5008938;28;20483;-71
2022/09/07 03:09:00;;;;;;;11.07;9.80;;;18.50;83.60;;;;;;5030529;28;20049;-71
2022/09/07 03:11:26;;;;;;;11.82;10.35;;;18.50;84.00;;;;;;5007211;28;20107;-71
2022/09/07 03:13:51;;;;;;;12.52;9.80;;;18.50;84.10;;;;;;5002888;28;20050;-71
2022/09/07 03:16:17;;;;;;;14.30;10.90;;;18.50;83.60;;;;;;5025644;28;20128;-72
2022/09/07 03:18:43;;;;;;;12.40;10.52;;;18.50;83.60;;;;;;5015243;28;20077;-71
2022/09/07 03:21:09;;;;;;;13.50;10.98;;;18.60;83.50;;;;;;5013739;28;20042;-71
2022/09/07 03:23:36;;;;;;;11.85;10.65;;;18.60;83.40;;;;;;4990292;28;20450;-71
2022/09/07 03:26:03;;;;;;;12.77;10.55;;;18.50;83.60;;;;;;5010626;28;20057;-71
2022/09/07 03:28:29;;;;;;;15.15;11.20;;;18.50;84.00;;;;;;5038859;28;20060;-71
2022/09/07 03:30:54;;;;;;;13.55;11.07;;;18.50;83.50;;;;;;5011828;28;20042;-71
2022/09/07 03:33:20;;;;;;;15.75;11.40;;;18.50;83.80;;;;;;5030710;28;20481;-71
2022/09/07 03:35:55;;;;;;;12.90;11.50;;;18.40;83.60;;;;;;5022538;28;20075;-71
2022/09/07 03:38:21;;;;;;;16.58;11.77;;;18.40;84.10;;;;;;5009611;28;20045;-71
2022/09/07 03:40:57;;;;;;;16.27;13.40;;;18.40;84.20;;;;;;5030789;28;20111;-72
2022/09/07 03:43:23;;;;;;;12.85;11.65;;;18.40;85.10;;;;;;4985990;28;20350;-71
2022/09/07 03:45:49;;;;;;;13.15;11.60;;;18.40;84.20;;;;;;5014039;28;20041;-71
2022/09/07 03:48:15;;;;;;;13.30;11.90;;;18.40;84.50;;;;;;5028143;28;20051;-71
2022/09/07 03:50:40;;;;;;;13.90;11.75;;;18.40;84.70;;;;;;5008967;28;20041;-71
2022/09/07 03:53:06;;;;;;;13.85;12.13;;;18.40;84.40;;;;;;5008540;28;20424;-71
2022/09/07 03:55:32;;;;;;;13.93;11.77;;;18.40;84.70;;;;;;5030277;28;20160;-71
2022/09/07 03:57:58;;;;;;;14.50;12.30;;;18.40;85.20;;;;;;5007745;28;20041;-71
2022/09/07 04:00:24;;;;;;;13.63;11.57;;;18.40;85.10;;;;;;5014254;28;20071;-71
2022/09/07 04:02:50;;;;;;;15.50;13.23;;;18.30;85.10;;;;;;5018443;28;20045;-71
2022/09/07 04:05:16;;;;;;;14.80;12.45;;;18.40;84.70;;;;;;5013939;28;20417;-71
2022/09/07 04:07:42;;;;;;;14.52;12.60;;;18.40;84.90;;;;;;5014056;28;20057;-71
2022/09/07 04:10:08;;;;;;;15.75;12.52;;;18.40;84.50;;;;;;5005303;28;20052;-71
2022/09/07 04:12:34;;;;;;;14.18;12.35;;;18.40;84.30;;;;;;5022993;28;20046;-71
2022/09/07 04:14:59;;;;;;;13.85;12.43;;;18.40;84.30;;;;;;5023779;28;20060;-71
2022/09/07 04:17:25;;;;;;;15.00;12.70;;;18.40;84.50;;;;;;5011971;28;20541;-71
2022/09/07 04:19:51;;;;;;;16.33;14.70;;;18.40;84.60;;;;;;5013603;28;20188;-71
2022/09/07 04:22:17;;;;;;;16.67;14.52;;;18.20;86.50;;;;;;5004236;28;20041;-71
2022/09/07 04:24:42;;;;;;;17.58;15.32;;;17.80;88.60;;;;;;5027686;28;20045;-71
2022/09/07 04:27:08;;;;;;;22.67;17.02;;;17.70;90.40;;;;;;5030039;28;20053;-71
2022/09/07 04:29:34;;;;;;;23.02;18.30;;;17.70;90.20;;;;;;5016741;28;20137;-70
2022/09/07 04:32:00;;;;;;;21.15;18.88;;;17.70;90.30;;;;;;5013006;28;20132;-70
2022/09/07 04:34:25;;;;;;;26.02;21.45;;;17.70;90.50;;;;;;5025770;28;20111;-71
2022/09/07 04:36:51;;;;;;;22.40;20.05;;;17.60;91.00;;;;;;5016236;28;20062;-71
2022/09/07 04:39:17;;;;;;;24.35;21.85;;;17.60;90.80;;;;;;5014769;28;20053;-71
2022/09/07 04:41:43;;;;;;;22.65;18.92;;;17.50;91.10;;;;;;5011276;28;20534;-71
2022/09/07 04:44:09;;;;;;;21.88;18.85;;;17.60;90.10;;;;;;5005169;28;20049;-71
2022/09/07 04:46:35;;;;;;;21.92;19.35;;;17.80;89.70;;;;;;5029828;28;20068;-71
2022/09/07 04:49:04;;;;;;;17.92;15.98;;;17.90;89.60;;;;;;5006549;28;20131;-71
2022/09/07 04:51:30;;;;;;;;;;;18.00;88.60;;;;;;5007596;28;20049;-71
2022/09/07 04:53:56;;;;;;;20.88;18.63;;;18.00;88.70;;;;;;5023260;28;19943;-71
2022/09/07 04:56:22;;;;;;;19.20;17.30;;;18.10;88.60;;;;;;5012798;28;20088;-71
2022/09/07 04:58:48;;;;;;;19.05;17.15;;;18.10;88.70;;;;;;5008957;28;20065;-71
2022/09/07 05:01:16;;;;;;;17.25;15.52;;;18.20;87.80;;;;;;4994217;28;20153;-71
2022/09/07 05:03:42;;;;;;;19.75;15.13;;;18.20;87.80;;;;;;5003306;28;20046;-71
2022/09/07 05:06:08;;;;;;;17.50;15.20;;;18.20;87.10;;;;;;5000143;28;20091;-72
2022/09/07 05:08:41;;;;;;;17.45;15.65;;;18.30;87.00;;;;;;4996008;28;20049;-71
2022/09/07 05:11:08;;;;;;;19.67;15.52;;;18.40;86.70;;;;;;5009497;28;20054;-71
2022/09/07 05:13:34;;;;;;;17.80;14.80;;;18.40;87.40;;;;;;5005115;28;20516;-71
2022/09/07 05:16:05;;;;;;;18.85;16.42;;;18.40;86.40;;;;;;4996132;28;20088;-71
2022/09/07 05:18:32;;;;;;;17.73;14.05;;;18.40;86.80;;;;;;5024167;28;20045;-71
2022/09/07 05:21:12;;;;;;;17.90;15.48;;;18.50;86.50;;;;;;5028943;28;20084;-71
2022/09/07 05:23:37;;;;;;;16.55;14.38;;;18.50;86.40;;;;;;5022200;28;20107;-71
2022/09/07 05:26:04;;;;;;;19.60;15.13;;;18.50;86.30;;;;;;5013835;28;20050;-71
2022/09/07 05:28:30;;;;;;;15.93;14.25;;;18.50;86.60;;;;;;4989485;28;20470;-71
2022/09/07 05:31:03;;;;;;;17.98;14.70;;;18.50;86.90;;;;;;5015010;28;20053;-72
2022/09/07 05:33:28;;;;;;;16.02;14.27;;;18.50;86.20;;;;;;5027754;28;20490;-71
2022/09/07 05:35:56;;;;;;;16.60;13.88;;;18.50;86.40;;;;;;4995251;28;20080;-71
2022/09/07 05:38:23;;;;;;;17.58;14.02;;;18.50;86.20;;;;;;5008364;28;20053;-72
2022/09/07 05:40:48;;;;;;;15.98;14.23;;;18.50;86.80;;;;;;5009190;28;20073;-71
2022/09/07 05:43:15;;;;;;;16.95;13.95;;;18.60;86.50;;;;;;5011798;28;20084;-71
2022/09/07 05:45:40;;;;;;;18.45;16.10;;;18.60;86.00;;;;;;5004942;28;20041;-71
2022/09/07 05:48:06;;;;;;;18.85;15.55;;;18.60;86.10;;;;;;5016236;28;20141;-71
2022/09/07 05:50:32;;;;;;;19.38;15.70;;;18.70;85.80;;;;;;5021409;28;20122;-71
2022/09/07 05:52:58;;;;;;;16.40;14.63;;;18.70;86.00;;;;;;4997233;28;20054;-71
2022/09/07 05:55:24;;;;;;;17.10;14.80;;;18.60;86.00;;;;;;4988878;28;20042;-71
2022/09/07 05:57:49;;;;;;;17.08;13.88;;;18.70;85.80;;;;;;5013954;28;20468;-71
2022/09/07 06:00:15;;;;;;;15.90;13.55;;;18.80;85.60;;;;;;4995832;28;20530;-69
2022/09/07 06:02:41;;;;;;;15.35;13.82;;;18.80;85.60;;;;;;5000989;28;20045;-71
2022/09/07 06:05:07;;;;;;;15.77;13.77;;;18.80;85.10;;;;;;4996373;28;20056;-71
2022/09/07 06:07:33;;;;;;;15.88;12.20;;;18.90;85.00;;;;;;4987497;28;20054;-71
2022/09/07 06:09:59;;;;;;;13.98;11.90;;;18.90;84.80;;;;;;4996861;28;20895;-71
2022/09/07 06:12:25;;;;;;;14.20;11.95;;;19.00;85.20;;;;;;5022501;28;20478;-71
2022/09/07 06:14:50;;;;;;;14.15;11.70;;;19.00;85.00;;;;;;4984609;28;20049;-72
2022/09/07 06:17:16;;;;;;;13.25;11.80;;;19.00;85.20;;;;;;4999021;28;20045;-72
2022/09/07 06:19:42;;;;;;;13.60;12.15;;;19.10;85.00;;;;;;4996897;28;20046;-72
2022/09/07 06:22:08;;;;;;;15.68;11.80;;;19.10;84.80;;;;;;5002685;28;20387;-72
2022/09/07 06:24:33;;;;;;;13.30;11.77;;;19.10;84.80;;;;;;4995610;28;20050;-72
2022/09/07 06:26:59;;;;;;;12.35;10.90;;;19.10;84.80;;;;;;5007850;28;20045;-71
2022/09/07 06:29:25;;;;;;;11.68;10.48;;;19.20;84.50;;;;;;5010733;28;20054;-71
2022/09/07 06:31:50;;;;;;;14.38;11.32;;;19.30;84.20;;;;;;5001749;28;20560;-71
2022/09/07 06:34:17;;;;;;;14.48;11.48;;;19.30;84.00;;;;;;4997624;28;20129;-71
2022/09/07 06:36:43;;;;;;;19.02;12.38;;;19.30;83.80;;;;;;5009770;28;20475;-71
2022/09/07 06:39:09;;;;;;;16.95;11.90;;;19.40;84.30;;;;;;5019717;28;20057;-71
2022/09/07 06:41:34;;;;;;;16.60;13.35;;;19.30;84.20;;;;;;4999362;28;20041;-71
2022/09/07 06:44:00;;;;;;;13.50;10.90;;;19.40;84.70;;;;;;4994281;28;20046;-71
2022/09/07 06:46:26;;;;;;;15.77;11.82;;;19.40;84.30;;;;;;4999847;28;20181;-71
2022/09/07 06:48:53;;;;;;;14.13;12.63;;;19.40;84.00;;;;;;5014926;28;20458;-71
2022/09/07 06:51:19;;;;;;;13.00;11.70;;;19.40;84.10;;;;;;5001318;28;20202;-71
2022/09/07 06:53:46;;;;;;;14.30;11.18;;;19.40;83.90;;;;;;5002195;28;20130;-71
2022/09/07 06:56:13;;;;;;;15.98;10.85;;;19.50;84.00;;;;;;5010470;28;20189;-71
2022/09/07 06:58:39;;;;;;;14.90;10.95;;;19.50;83.40;;;;;;4995813;28;21778;-72
2022/09/07 07:01:08;;;;;;;14.50;11.65;;;19.60;83.80;;;;;;5022315;28;20124;-71
2022/09/07 07:03:34;;;;;;;17.25;10.40;;;19.60;84.20;;;;;;5009953;28;20045;-71
2022/09/07 07:06:00;;;;;;;11.27;10.10;;;19.60;83.60;;;;;;4989250;28;20050;-71
2022/09/07 07:08:26;;;;;;;11.35;9.75;;;19.70;83.50;;;;;;5004733;28;20060;-70
2022/09/07 07:10:52;;;;;;;11.48;8.65;;;19.80;83.50;;;;;;5000118;28;20053;-71
2022/09/07 07:13:18;;;;;;;10.32;9.10;;;19.90;83.20;;;;;;5007168;28;20053;-71
2022/09/07 07:15:44;;;;;;;11.68;9.10;;;19.90;82.90;;;;;;5007195;28;20478;-71
2022/09/07 07:18:10;;;;;;;14.88;8.82;;;20.00;83.00;;;;;;4996826;28;20061;-71
2022/09/07 07:20:37;;;;;;;12.90;8.70;;;20.00;82.70;;;;;;5011193;28;20388;-72
2022/09/07 07:23:06;;;;;;;12.38;8.57;;;20.00;82.90;;;;;;5014721;28;20176;-72
2022/09/07 07:25:34;;;;;;;12.52;8.20;;;20.10;82.80;;;;;;5008361;28;20132;-72
2022/09/07 07:28:00;;;;;;;11.52;8.40;;;20.20;82.70;;;;;;4999580;28;20471;-72
2022/09/07 07:30:25;;;;;;;10.30;8.43;;;20.20;82.70;;;;;;5016502;28;20057;-72
2022/09/07 07:32:51;;;;;;;12.10;8.95;;;20.20;82.50;;;;;;4997238;28;20050;-73
2022/09/07 07:35:17;;;;;;;13.77;9.18;;;20.20;82.20;;;;;;4997302;28;20060;-72
2022/09/07 07:37:43;;;;;;;11.93;9.75;;;20.20;81.90;;;;;;5003041;28;20049;-73
2022/09/07 07:40:10;;;;;;;12.38;10.00;;;20.00;82.80;;;;;;5001122;28;20624;-73
2022/09/07 07:42:38;;;;;;;13.10;9.32;;;19.90;83.90;;;;;;4984101;28;20046;-71
2022/09/07 07:45:06;;;;;;;9.95;8.95;;;19.70;85.00;;;;;;4993596;28;20556;-69
2022/09/07 07:47:32;;;;;;;13.27;10.03;;;19.80;85.20;;;;;;5004090;28;20207;-68
2022/09/07 07:49:58;;;;;;;23.15;10.38;;;19.80;85.50;;;;;;4994475;28;20056;-70
2022/09/07 07:52:24;;;;;;;21.98;10.15;;;19.80;85.80;;;;;;5008035;28;20057;-70
2022/09/07 07:54:50;;;;;;;14.68;10.00;;;19.90;88.50;;;;;;4997124;28;20386;-70
2022/09/07 07:57:17;;;;;;;13.55;10.77;;;19.90;90.10;;;;;;5005694;28;20375;-71
2022/09/07 07:59:43;;;;;;;13.15;10.80;;;19.90;90.10;;;;;;4999439;28;20504;-70
2022/09/07 08:02:12;;;;;;;12.90;10.65;;;19.90;90.50;;;;;;5011819;28;20124;-70
2022/09/07 08:04:38;;;;;;;13.45;11.40;;;19.90;90.30;;;;;;4997061;28;20050;-70
2022/09/07 08:07:04;;;;;;;12.70;11.38;;;19.90;90.80;;;;;;5016388;28;20046;-70
2022/09/07 08:09:29;;;;;;;13.73;10.90;;;20.00;90.50;;;;;;5018783;28;20057;-70
2022/09/07 08:11:55;;;;;;;14.25;11.82;;;20.00;90.30;;;;;;5009739;28;20107;-69
2022/09/07 08:14:21;;;;;;;16.75;11.63;;;20.00;90.40;;;;;;5004549;28;20049;-70
2022/09/07 08:16:47;;;;;;;12.60;11.30;;;20.00;90.20;;;;;;4997970;28;20046;-70
2022/09/07 08:19:21;;;;;;;13.02;11.55;;;20.10;90.40;;;;;;5003715;28;20095;-70
2022/09/07 08:21:47;;;;;;;15.15;11.35;;;20.00;90.60;;;;;;4996984;28;20038;-71
2022/09/07 08:24:14;;;;;;;13.15;11.30;;;20.00;90.50;;;;;;4992255;28;20135;-70
2022/09/07 08:26:40;;;;;;;15.40;12.40;;;20.10;90.40;;;;;;5016158;28;20470;-71
2022/09/07 08:29:06;;;;;;;12.52;11.23;;;20.10;89.70;;;;;;4991419;28;20060;-71
2022/09/07 08:31:32;;;;;;;13.18;11.88;;;20.10;89.80;;;;;;5001555;28;20060;-71
2022/09/07 08:33:58;;;;;;;16.13;11.90;;;20.10;89.80;;;;;;5004180;28;20084;-70
2022/09/07 08:36:24;;;;;;;18.00;13.57;;;20.00;90.10;;;;;;5003450;28;20064;-71
2022/09/07 08:38:50;;;;;;;16.42;13.07;;;20.00;90.10;;;;;;4997180;28;20920;-70
2022/09/07 08:41:36;;;;;;;16.45;14.75;;;20.00;90.30;;;;;;5013428;28;20436;-71
2022/09/07 08:44:19;;;;;;;13.30;11.68;;;19.90;90.60;;;;;;5017335;28;20041;-70
2022/09/07 08:46:53;;;;;;;14.13;12.13;;;19.90;90.60;;;;;;4997034;28;20053;-70
2022/09/07 08:49:29;;;;;;;18.10;12.20;;;20.00;90.40;;;;;;4999684;28;20037;-69
2022/09/07 08:52:03;;;;;;;14.95;10.85;;;20.10;90.70;;;;;;5000102;28;20121;-69
2022/09/07 08:54:31;;;;;;;13.07;11.55;;;20.20;90.00;;;;;;5016719;28;20087;-69
2022/09/07 08:57:03;;;;;;;16.10;13.85;;;20.20;90.30;;;;;;5008051;28;20045;-69
2022/09/07 08:59:47;;;;;;;13.25;11.88;;;20.30;90.10;;;;;;5005587;28;20061;-69
2022/09/07 09:02:16;;;;;;;14.32;10.98;;;20.30;90.20;;;;;;4997652;28;20185;-69
2022/09/07 09:04:42;;;;;;;;;;;20.40;90.20;;;;;;5002265;28;20487;-69
2022/09/07 09:07:48;;;;;;;13.13;11.43;;;20.50;90.40;;;;;;5018180;28;19960;-68
2022/09/07 09:10:40;;;;;;;14.07;11.23;;;20.50;90.10;;;;;;5010969;28;20462;-69
2022/09/07 09:13:25;;;;;;;14.07;11.40;;;20.60;90.00;;;;;;5003499;28;20087;-69
2022/09/07 09:16:04;;;;;;;13.27;11.98;;;20.70;89.90;;;;;;5015888;28;20210;-68
2022/09/07 09:18:43;;;;;;;13.68;10.55;;;20.80;90.10;;;;;;5007810;28;20041;-68
2022/09/07 09:21:18;;;;;;;12.38;10.98;;;20.90;89.60;;;;;;5003062;28;20073;-68
2022/09/07 09:23:46;;;;;;;12.80;11.30;;;20.90;89.70;;;;;;5000248;28;20093;-69
2022/09/07 15:57:09;;;;;;;11.15;4.70;;;25.00;76.20;;;;;;4665063;28;20766;-73
2022/09/07 15:59:36;;;;;;;12.37;5.13;;;25.10;75.50;;;;;;4959642;28;20055;-73
2022/09/07 16:02:03;;;;;;;7.45;4.50;;;25.00;78.00;;;;;;4954956;28;20353;-74
2022/09/07 16:04:29;;;;;;;8.27;4.40;;;24.90;78.40;;;;;;4969385;28;20051;-74
2022/09/07 16:06:56;;;;;;;7.80;4.30;;;24.90;75.50;;;;;;4946105;28;20047;-74
2022/09/07 16:09:23;;;;;;;5.32;3.70;;;24.80;77.70;;;;;;4970494;28;20153;-76
2022/09/07 16:11:49;;;;;;;7.47;4.60;;;24.70;75.70;;;;;;4959303;28;20483;-74
2022/09/07 16:14:15;;;;;;;12.60;4.75;;;24.60;76.70;;;;;;4958049;28;20039;-73
2022/09/07 16:16:40;;;;;;;10.20;5.03;;;24.60;77.40;;;;;;4957060;28;20376;-73
2022/09/07 16:19:06;;;;;;;11.88;5.30;;;24.60;78.90;;;;;;4964181;28;20051;-73
2022/09/07 16:21:32;;;;;;;6.50;5.07;;;24.50;77.60;;;;;;4967410;28;20130;-73
2022/09/07 16:23:58;;;;;;;7.65;5.28;;;24.50;79.20;;;;;;4951524;28;20039;-73
2022/09/07 16:26:24;;;;;;;7.47;4.95;;;24.40;81.00;;;;;;4985556;28;20047;-72
2022/09/07 16:28:51;;;;;;;5.95;4.80;;;24.30;81.10;;;;;;4966731;28;20381;-72
2022/09/07 16:31:21;;;;;;;4.93;4.43;;;24.20;81.80;;;;;;4934537;28;20464;-71
2022/09/07 16:33:47;;;;;;;7.85;5.97;;;24.20;80.60;;;;;;4972207;28;20051;-72
2022/09/07 16:36:14;;;;;;;7.70;5.22;;;24.20;80.80;;;;;;4955540;28;20046;-71
2022/09/07 16:38:42;;;;;;;6.97;5.55;;;24.20;81.20;;;;;;4953742;28;20043;-72
2022/09/07 16:41:30;;;;;;;11.27;5.88;;;24.10;80.90;;;;;;4966872;28;20047;-72
2022/09/07 16:43:57;;;;;;;9.07;5.05;;;24.00;81.20;;;;;;4967294;28;20121;-72
2022/09/07 16:46:27;;;;;;;10.48;5.47;;;24.00;80.70;;;;;;4966745;28;20156;-73
2022/09/07 16:48:53;;;;;;;7.43;4.82;;;23.90;81.30;;;;;;4952056;28;20063;-73
2022/09/07 16:51:20;;;;;;;9.68;5.25;;;23.80;80.60;;;;;;4951023;28;20372;-72
2022/09/07 16:53:47;;;;;;;7.20;5.30;;;23.70;81.70;;;;;;4957335;28;20086;-72
2022/09/07 16:56:18;;;;;;;10.23;5.60;;;23.70;81.40;;;;;;4971781;28;20092;-72
2022/09/07 16:58:50;;;;;;;7.65;6.03;;;23.70;81.60;;;;;;4955326;28;20054;-72
2022/09/07 17:01:17;;;;;;;8.52;6.30;;;23.60;82.40;;;;;;4954638;28;20053;-72
2022/09/07 17:03:43;;;;;;;13.37;7.90;;;23.60;82.30;;;;;;4980767;28;20133;-72
2022/09/07 17:06:10;;;;;;;11.43;6.68;;;23.50;82.10;;;;;;4981472;28;20054;-72
2022/09/07 17:08:36;;;;;;;10.25;6.90;;;23.50;81.90;;;;;;4953560;28;20043;-72
2022/09/07 17:11:10;;;;;;;12.55;7.22;;;23.50;82.20;;;;;;4944778;28;20043;-71
2022/09/07 17:13:40;;;;;;;12.10;7.32;;;23.50;82.10;;;;;;4963924;28;20061;-71
2022/09/07 17:16:09;;;;;;;8.20;7.03;;;23.40;82.30;;;;;;4976759;28;20146;-71
2022/09/07 17:18:35;;;;;;;11.15;7.70;;;23.40;82.20;;;;;;4946152;28;20781;-71
2022/09/07 17:21:04;;;;;;;11.57;7.82;;;23.40;81.70;;;;;;4963497;28;20081;-70
2022/09/07 17:23:31;;;;;;;13.18;7.60;;;23.30;82.10;;;;;;4959644;28;20663;-71
2022/09/07 17:26:09;;;;;;;11.70;7.30;;;23.20;82.40;;;;;;4975132;28;20543;-71
2022/09/07 17:28:34;;;;;;;12.50;6.97;;;23.10;82.30;;;;;;4972693;28;20737;-71
2022/09/07 17:31:07;;;;;;;11.23;7.88;;;23.00;81.60;;;;;;4974902;28;20058;-71
2022/09/07 17:33:33;;;;;;;12.48;8.63;;;22.90;82.00;;;;;;4971188;28;20193;-71
2022/09/07 17:36:01;;;;;;;11.90;8.73;;;22.50;86.20;;;;;;4963781;28;20046;-69
2022/09/07 17:38:26;;;;;;;10.60;8.00;;;22.10;86.70;;;;;;4954445;28;20298;-70
2022/09/07 17:40:52;;;;;;;10.02;6.88;;;21.70;86.90;;;;;;4971009;28;20226;-70
2022/09/07 17:43:20;;;;;;;13.15;6.20;;;21.70;85.80;;;;;;4947998;28;20039;-70
2022/09/07 17:45:46;;;;;;;8.95;6.30;;;21.90;85.30;;;;;;4966947;28;20038;-70
2022/09/07 17:48:12;;;;;;;7.30;5.32;;;22.00;84.60;;;;;;4966100;28;20070;-70
2022/09/07 17:50:38;;;;;;;6.82;5.78;;;22.10;83.00;;;;;;4971034;28;20078;-71
2022/09/07 17:53:04;;;;;;;7.97;4.90;;;22.10;82.00;;;;;;4972988;28;20034;-71
2022/09/07 17:55:30;;;;;;;9.32;5.22;;;22.00;81.70;;;;;;4966577;28;20506;-70
2022/09/07 17:58:01;;;;;;;8.00;4.95;;;22.00;81.80;;;;;;4967182;28;20054;-71
2022/09/07 18:00:27;;;;;;;8.57;5.20;;;21.90;81.70;;;;;;4970692;28;20487;-72
2022/09/07 18:02:54;;;;;;;8.68;4.93;;;21.80;82.20;;;;;;4968381;28;20097;-72
2022/09/07 18:05:20;;;;;;;9.23;3.75;;;21.70;81.80;;;;;;4969383;28;20085;-71
2022/09/07 18:07:47;;;;;;;5.80;3.90;;;21.70;80.60;;;;;;4981326;28;20081;-71
2022/09/07 18:10:12;;;;;;;6.72;3.78;;;21.70;80.70;;;;;;4971422;28;20062;-70
2022/09/07 18:12:38;;;;;;;5.68;3.60;;;21.80;80.30;;;;;;4952995;28;20114;-70
2022/09/07 18:15:06;;;;;;;9.57;4.47;;;21.70;80.00;;;;;;4966677;28;20051;-70
2022/09/07 18:17:32;;;;;;;8.55;4.43;;;21.70;79.30;;;;;;4969946;28;20078;-70
2022/09/07 18:19:58;;;;;;;8.30;5.10;;;21.70;77.90;;;;;;4975621;28;20046;-71
2022/09/07 18:22:25;;;;;;;4.75;3.10;;;21.60;78.20;;;;;;4974368;28;20538;-72
2022/09/07 18:24:51;;;;;;;8.95;3.85;;;21.60;77.40;;;;;;4969246;28;20130;-72
2022/09/07 18:27:19;;;;;;;5.13;3.10;;;21.50;77.20;;;;;;4965949;28;21077;-70
2022/09/07 18:29:45;;;;;;;6.38;3.63;;;21.50;77.60;;;;;;4951958;28;20078;-73
2022/09/07 18:32:11;;;;;;;7.57;2.80;;;21.40;77.90;;;;;;4965891;28;20082;-71
2022/09/07 18:34:37;;;;;;;4.80;2.72;;;21.50;77.80;;;;;;4937114;28;20047;-70
2022/09/07 18:37:03;;;;;;;7.28;2.95;;;21.40;78.90;;;;;;4957224;28;20054;-71
2022/09/07 18:39:29;;;;;;;10.07;4.22;;;21.20;80.30;;;;;;4950531;28;20043;-71
2022/09/07 18:41:55;;;;;;;8.80;4.80;;;20.60;85.50;;;;;;4967467;28;20109;-68
2022/09/07 18:44:25;;;;;;;6.45;3.80;;;20.40;88.10;;;;;;4969528;28;20515;-68
2022/09/07 18:46:51;;;;;;;10.20;4.22;;;20.20;88.40;;;;;;4967531;28;20050;-68
2022/09/07 18:49:16;;;;;;;10.93;4.60;;;20.40;87.60;;;;;;4971662;28;20047;-68
2022/09/07 18:51:42;;;;;;;15.57;5.07;;;20.60;88.00;;;;;;4975886;28;20062;-69
2022/09/07 18:54:08;;;;;;;11.85;4.72;;;20.70;87.70;;;;;;4969525;28;20065;-69
2022/09/07 18:56:34;;;;;;;13.70;3.80;;;20.70;87.10;;;;;;4948312;28;20083;-70
2022/09/07 18:58:59;;;;;;;11.98;4.47;;;20.60;86.90;;;;;;4974247;28;20116;-68
2022/09/07 19:01:25;;;;;;;13.77;4.25;;;20.50;87.70;;;;;;4959561;28;20484;-67
2022/09/07 19:03:52;;;;;;;8.98;4.60;;;20.50;87.60;;;;;;4979443;28;20428;-66
2022/09/07 19:06:18;;;;;;;9.48;4.32;;;20.50;88.30;;;;;;4964290;28;20054;-68
2022/09/07 19:08:45;;;;;;;8.82;4.40;;;20.50;87.90;;;;;;4962913;28;20051;-68
2022/09/07 19:11:13;;;;;;;6.22;4.18;;;20.50;88.10;;;;;;4960230;28;20047;-68
2022/09/07 19:13:39;;;;;;;;;;;20.50;88.20;;;;;;4947912;28;20066;-68